sensor_id;sensor_type;location;lat;lon;timestamp;P1;durP1;ratioP1;P2;durP2;ratioP2
68168;SDS011;54981;50.206;15.978;2023-07-20T00:00:25;9.63;;;4.90;;
68168;SDS011;54981;50.206;15.978;2023-07-20T00:03:09;8.55;;;5.40;;
68168;SDS011;54981;50.206;15.978;2023-07-20T00:05:46;7.30;;;5.05;;
68168;SDS011;54981;50.206;15.978;2023-07-20T00:08:17;6.93;;;4.45;;
68168;SDS011;54981;50.206;15.978;2023-07-20T00:10:48;8.50;;;4.95;;
68168;SDS011;54981;50.206;15.978;2023-07-20T00:13:18;8.00;;;4.68;;
68168;SDS011;54981;50.206;15.978;2023-07-20T00:15:51;8.15;;;4.47;;
68168;SDS011;54981;50.206;15.978;2023-07-20T00:18:22;8.68;;;5.25;;
68168;SDS011;54981;50.206;15.978;2023-07-20T00:20:52;6.50;;;4.57;;
68168;SDS011;54981;50.206;15.978;2023-07-20T00:23:22;7.03;;;5.20;;
68168;SDS011;54981;50.206;15.978;2023-07-20T00:25:53;9.13;;;4.88;;
68168;SDS011;54981;50.206;15.978;2023-07-20T00:28:24;9.93;;;5.10;;
68168;SDS011;54981;50.206;15.978;2023-07-20T00:30:54;8.48;;;4.60;;
68168;SDS011;54981;50.206;15.978;2023-07-20T00:33:24;8.88;;;4.55;;
68168;SDS011;54981;50.206;15.978;2023-07-20T00:35:55;5.40;;;4.22;;
68168;SDS011;54981;50.206;15.978;2023-07-20T00:38:25;7.47;;;4.85;;
68168;SDS011;54981;50.206;15.978;2023-07-20T00:40:55;7.00;;;4.32;;
68168;SDS011;54981;50.206;15.978;2023-07-20T00:43:26;8.02;;;4.50;;
68168;SDS011;54981;50.206;15.978;2023-07-20T00:45:56;6.22;;;4.60;;
68168;SDS011;54981;50.206;15.978;2023-07-20T00:48:27;6.38;;;4.30;;
68168;SDS011;54981;50.206;15.978;2023-07-20T00:50:58;6.10;;;4.32;;
68168;SDS011;54981;50.206;15.978;2023-07-20T00:53:30;4.73;;;4.33;;
68168;SDS011;54981;50.206;15.978;2023-07-20T00:56:00;23.05;;;5.85;;
68168;SDS011;54981;50.206;15.978;2023-07-20T00:58:31;8.73;;;4.70;;
68168;SDS011;54981;50.206;15.978;2023-07-20T01:01:01;8.02;;;4.07;;
68168;SDS011;54981;50.206;15.978;2023-07-20T01:03:32;6.90;;;4.25;;
68168;SDS011;54981;50.206;15.978;2023-07-20T01:09:05;4.95;;;4.47;;
68168;SDS011;54981;50.206;15.978;2023-07-20T01:14:24;6.15;;;4.78;;
68168;SDS011;54981;50.206;15.978;2023-07-20T01:16:55;8.93;;;4.38;;
68168;SDS011;54981;50.206;15.978;2023-07-20T01:19:25;7.47;;;4.18;;
68168;SDS011;54981;50.206;15.978;2023-07-20T01:24:53;5.53;;;4.28;;
68168;SDS011;54981;50.206;15.978;2023-07-20T01:27:44;5.10;;;4.55;;
68168;SDS011;54981;50.206;15.978;2023-07-20T01:33:21;5.05;;;4.55;;
68168;SDS011;54981;50.206;15.978;2023-07-20T01:35:57;5.65;;;5.07;;
68168;SDS011;54981;50.206;15.978;2023-07-20T01:38:29;6.78;;;4.55;;
68168;SDS011;54981;50.206;15.978;2023-07-20T01:41:00;5.40;;;4.90;;
68168;SDS011;54981;50.206;15.978;2023-07-20T01:43:32;5.95;;;5.30;;
68168;SDS011;54981;50.206;15.978;2023-07-20T01:46:02;5.72;;;4.15;;
68168;SDS011;54981;50.206;15.978;2023-07-20T01:48:32;5.10;;;4.60;;
68168;SDS011;54981;50.206;15.978;2023-07-20T01:51:03;7.68;;;5.07;;
68168;SDS011;54981;50.206;15.978;2023-07-20T01:53:33;7.03;;;5.07;;
68168;SDS011;54981;50.206;15.978;2023-07-20T01:56:04;7.35;;;5.55;;
68168;SDS011;54981;50.206;15.978;2023-07-20T01:58:34;7.15;;;5.43;;
68168;SDS011;54981;50.206;15.978;2023-07-20T02:01:05;7.28;;;5.63;;
68168;SDS011;54981;50.206;15.978;2023-07-20T02:03:35;5.93;;;5.43;;
68168;SDS011;54981;50.206;15.978;2023-07-20T02:06:05;7.20;;;5.05;;
68168;SDS011;54981;50.206;15.978;2023-07-20T02:08:36;5.93;;;5.38;;
68168;SDS011;54981;50.206;15.978;2023-07-20T02:11:06;5.60;;;5.07;;
68168;SDS011;54981;50.206;15.978;2023-07-20T02:13:36;6.38;;;5.68;;
68168;SDS011;54981;50.206;15.978;2023-07-20T02:16:07;5.00;;;4.40;;
68168;SDS011;54981;50.206;15.978;2023-07-20T02:18:37;5.18;;;4.60;;
68168;SDS011;54981;50.206;15.978;2023-07-20T02:21:08;5.65;;;5.10;;
68168;SDS011;54981;50.206;15.978;2023-07-20T02:23:38;7.70;;;5.10;;
68168;SDS011;54981;50.206;15.978;2023-07-20T02:26:08;6.55;;;5.38;;
68168;SDS011;54981;50.206;15.978;2023-07-20T02:28:39;5.18;;;4.75;;
68168;SDS011;54981;50.206;15.978;2023-07-20T02:31:09;5.97;;;5.38;;
68168;SDS011;54981;50.206;15.978;2023-07-20T02:33:39;6.65;;;5.07;;
68168;SDS011;54981;50.206;15.978;2023-07-20T02:36:10;5.05;;;4.55;;
68168;SDS011;54981;50.206;15.978;2023-07-20T02:38:40;5.75;;;5.15;;
68168;SDS011;54981;50.206;15.978;2023-07-20T02:41:10;6.88;;;5.03;;
68168;SDS011;54981;50.206;15.978;2023-07-20T02:43:41;8.15;;;5.07;;
68168;SDS011;54981;50.206;15.978;2023-07-20T02:46:11;6.63;;;4.97;;
68168;SDS011;54981;50.206;15.978;2023-07-20T02:48:41;6.47;;;5.15;;
68168;SDS011;54981;50.206;15.978;2023-07-20T02:51:12;6.43;;;5.70;;
68168;SDS011;54981;50.206;15.978;2023-07-20T02:53:43;7.28;;;5.05;;
68168;SDS011;54981;50.206;15.978;2023-07-20T02:56:13;7.80;;;5.80;;
68168;SDS011;54981;50.206;15.978;2023-07-20T02:58:45;7.03;;;6.13;;
68168;SDS011;54981;50.206;15.978;2023-07-20T03:01:15;7.57;;;5.97;;
68168;SDS011;54981;50.206;15.978;2023-07-20T03:03:46;7.43;;;5.68;;
68168;SDS011;54981;50.206;15.978;2023-07-20T03:06:16;6.32;;;5.72;;
68168;SDS011;54981;50.206;15.978;2023-07-20T03:08:47;5.82;;;5.05;;
68168;SDS011;54981;50.206;15.978;2023-07-20T03:11:19;6.60;;;5.47;;
68168;SDS011;54981;50.206;15.978;2023-07-20T03:13:52;7.18;;;5.90;;
68168;SDS011;54981;50.206;15.978;2023-07-20T03:16:23;5.90;;;5.30;;
68168;SDS011;54981;50.206;15.978;2023-07-20T03:18:55;6.72;;;5.55;;
68168;SDS011;54981;50.206;15.978;2023-07-20T03:21:25;5.35;;;4.55;;
68168;SDS011;54981;50.206;15.978;2023-07-20T03:23:56;5.65;;;4.50;;
68168;SDS011;54981;50.206;15.978;2023-07-20T03:26:26;7.13;;;5.72;;
68168;SDS011;54981;50.206;15.978;2023-07-20T03:28:57;7.38;;;5.82;;
68168;SDS011;54981;50.206;15.978;2023-07-20T03:31:27;5.95;;;5.35;;
68168;SDS011;54981;50.206;15.978;2023-07-20T03:33:58;6.55;;;5.28;;
68168;SDS011;54981;50.206;15.978;2023-07-20T03:36:28;5.47;;;4.55;;
68168;SDS011;54981;50.206;15.978;2023-07-20T03:38:59;5.72;;;5.22;;
68168;SDS011;54981;50.206;15.978;2023-07-20T03:41:29;5.38;;;4.88;;
68168;SDS011;54981;50.206;15.978;2023-07-20T03:44:00;6.10;;;5.60;;
68168;SDS011;54981;50.206;15.978;2023-07-20T03:46:30;7.80;;;5.57;;
68168;SDS011;54981;50.206;15.978;2023-07-20T03:49:01;6.72;;;5.07;;
68168;SDS011;54981;50.206;15.978;2023-07-20T03:51:31;7.00;;;4.85;;
68168;SDS011;54981;50.206;15.978;2023-07-20T03:54:02;6.90;;;4.82;;
68168;SDS011;54981;50.206;15.978;2023-07-20T03:56:32;6.88;;;5.47;;
68168;SDS011;54981;50.206;15.978;2023-07-20T03:59:05;7.75;;;6.95;;
68168;SDS011;54981;50.206;15.978;2023-07-20T04:01:35;6.43;;;5.82;;
68168;SDS011;54981;50.206;15.978;2023-07-20T04:04:07;6.28;;;5.32;;
68168;SDS011;54981;50.206;15.978;2023-07-20T04:06:38;6.63;;;5.38;;
68168;SDS011;54981;50.206;15.978;2023-07-20T04:09:08;5.78;;;5.18;;
68168;SDS011;54981;50.206;15.978;2023-07-20T04:11:39;5.82;;;5.18;;
68168;SDS011;54981;50.206;15.978;2023-07-20T04:14:10;5.93;;;5.10;;
68168;SDS011;54981;50.206;15.978;2023-07-20T04:16:40;6.07;;;5.47;;
68168;SDS011;54981;50.206;15.978;2023-07-20T04:19:11;7.03;;;5.18;;
68168;SDS011;54981;50.206;15.978;2023-07-20T04:21:41;5.53;;;4.95;;
68168;SDS011;54981;50.206;15.978;2023-07-20T04:24:12;6.85;;;5.30;;
68168;SDS011;54981;50.206;15.978;2023-07-20T04:26:42;6.32;;;5.68;;
68168;SDS011;54981;50.206;15.978;2023-07-20T04:29:12;7.00;;;6.07;;
68168;SDS011;54981;50.206;15.978;2023-07-20T04:31:43;7.82;;;5.68;;
68168;SDS011;54981;50.206;15.978;2023-07-20T04:34:13;7.63;;;5.90;;
68168;SDS011;54981;50.206;15.978;2023-07-20T04:36:43;7.82;;;6.35;;
68168;SDS011;54981;50.206;15.978;2023-07-20T04:39:14;7.70;;;6.10;;
68168;SDS011;54981;50.206;15.978;2023-07-20T04:41:44;6.85;;;5.93;;
68168;SDS011;54981;50.206;15.978;2023-07-20T04:44:14;8.50;;;6.40;;
68168;SDS011;54981;50.206;15.978;2023-07-20T04:46:45;7.63;;;6.60;;
68168;SDS011;54981;50.206;15.978;2023-07-20T04:49:16;6.70;;;5.90;;
68168;SDS011;54981;50.206;15.978;2023-07-20T04:51:46;7.75;;;5.65;;
68168;SDS011;54981;50.206;15.978;2023-07-20T04:54:17;8.20;;;6.00;;
68168;SDS011;54981;50.206;15.978;2023-07-20T04:56:48;8.48;;;6.43;;
68168;SDS011;54981;50.206;15.978;2023-07-20T04:59:18;6.57;;;5.88;;
68168;SDS011;54981;50.206;15.978;2023-07-20T05:01:50;8.25;;;6.93;;
68168;SDS011;54981;50.206;15.978;2023-07-20T05:04:20;11.45;;;6.32;;
68168;SDS011;54981;50.206;15.978;2023-07-20T05:06:50;8.55;;;5.82;;
68168;SDS011;54981;50.206;15.978;2023-07-20T05:09:21;9.55;;;7.05;;
68168;SDS011;54981;50.206;15.978;2023-07-20T05:11:51;8.00;;;6.65;;
68168;SDS011;54981;50.206;15.978;2023-07-20T05:14:22;9.32;;;7.35;;
68168;SDS011;54981;50.206;15.978;2023-07-20T05:16:52;9.75;;;6.75;;
68168;SDS011;54981;50.206;15.978;2023-07-20T05:19:24;11.57;;;7.57;;
68168;SDS011;54981;50.206;15.978;2023-07-20T05:21:55;8.13;;;6.47;;
68168;SDS011;54981;50.206;15.978;2023-07-20T05:24:25;8.63;;;7.22;;
68168;SDS011;54981;50.206;15.978;2023-07-20T05:26:55;8.00;;;7.18;;
68168;SDS011;54981;50.206;15.978;2023-07-20T05:29:26;9.25;;;7.45;;
68168;SDS011;54981;50.206;15.978;2023-07-20T05:31:56;10.30;;;7.72;;
68168;SDS011;54981;50.206;15.978;2023-07-20T05:34:26;10.93;;;7.68;;
68168;SDS011;54981;50.206;15.978;2023-07-20T05:36:57;11.68;;;8.32;;
68168;SDS011;54981;50.206;15.978;2023-07-20T05:39:27;10.52;;;8.18;;
68168;SDS011;54981;50.206;15.978;2023-07-20T05:41:57;8.80;;;7.90;;
68168;SDS011;54981;50.206;15.978;2023-07-20T05:44:28;9.20;;;8.05;;
68168;SDS011;54981;50.206;15.978;2023-07-20T05:46:58;9.30;;;7.93;;
68168;SDS011;54981;50.206;15.978;2023-07-20T05:49:28;12.18;;;8.02;;
68168;SDS011;54981;50.206;15.978;2023-07-20T05:51:59;12.80;;;8.18;;
68168;SDS011;54981;50.206;15.978;2023-07-20T05:54:30;17.33;;;8.68;;
68168;SDS011;54981;50.206;15.978;2023-07-20T05:57:01;11.75;;;8.70;;
68168;SDS011;54981;50.206;15.978;2023-07-20T05:59:31;10.52;;;9.63;;
68168;SDS011;54981;50.206;15.978;2023-07-20T06:02:02;9.88;;;8.98;;
68168;SDS011;54981;50.206;15.978;2023-07-20T06:04:32;9.75;;;8.55;;
68168;SDS011;54981;50.206;15.978;2023-07-20T06:07:02;13.65;;;10.00;;
68168;SDS011;54981;50.206;15.978;2023-07-20T06:09:33;11.13;;;9.93;;
68168;SDS011;54981;50.206;15.978;2023-07-20T06:12:04;11.73;;;9.30;;
68168;SDS011;54981;50.206;15.978;2023-07-20T06:14:35;11.63;;;8.93;;
68168;SDS011;54981;50.206;15.978;2023-07-20T06:17:05;11.73;;;10.10;;
68168;SDS011;54981;50.206;15.978;2023-07-20T06:19:35;12.43;;;10.88;;
68168;SDS011;54981;50.206;15.978;2023-07-20T06:22:06;11.95;;;10.10;;
68168;SDS011;54981;50.206;15.978;2023-07-20T06:24:36;11.45;;;10.25;;
68168;SDS011;54981;50.206;15.978;2023-07-20T06:27:06;11.43;;;10.32;;
68168;SDS011;54981;50.206;15.978;2023-07-20T06:29:37;11.40;;;9.55;;
68168;SDS011;54981;50.206;15.978;2023-07-20T06:32:07;12.80;;;10.27;;
68168;SDS011;54981;50.206;15.978;2023-07-20T06:34:38;11.45;;;10.32;;
68168;SDS011;54981;50.206;15.978;2023-07-20T06:37:08;11.05;;;9.90;;
68168;SDS011;54981;50.206;15.978;2023-07-20T06:39:39;14.07;;;10.63;;
68168;SDS011;54981;50.206;15.978;2023-07-20T06:42:09;13.75;;;9.90;;
68168;SDS011;54981;50.206;15.978;2023-07-20T06:44:40;13.00;;;8.88;;
68168;SDS011;54981;50.206;15.978;2023-07-20T06:47:10;10.93;;;8.45;;
68168;SDS011;54981;50.206;15.978;2023-07-20T06:49:41;10.07;;;8.50;;
68168;SDS011;54981;50.206;15.978;2023-07-20T06:52:11;9.68;;;8.68;;
68168;SDS011;54981;50.206;15.978;2023-07-20T06:54:44;8.82;;;7.93;;
68168;SDS011;54981;50.206;15.978;2023-07-20T06:57:22;9.35;;;8.13;;
68168;SDS011;54981;50.206;15.978;2023-07-20T06:59:53;9.88;;;8.35;;
68168;SDS011;54981;50.206;15.978;2023-07-20T07:02:23;9.88;;;8.15;;
68168;SDS011;54981;50.206;15.978;2023-07-20T07:04:53;9.40;;;7.55;;
68168;SDS011;54981;50.206;15.978;2023-07-20T07:07:25;9.43;;;7.88;;
68168;SDS011;54981;50.206;15.978;2023-07-20T07:09:55;8.75;;;7.65;;
68168;SDS011;54981;50.206;15.978;2023-07-20T07:12:26;9.55;;;7.85;;
68168;SDS011;54981;50.206;15.978;2023-07-20T07:14:56;9.77;;;8.32;;
68168;SDS011;54981;50.206;15.978;2023-07-20T07:17:27;9.57;;;8.20;;
68168;SDS011;54981;50.206;15.978;2023-07-20T07:19:57;9.65;;;8.02;;
68168;SDS011;54981;50.206;15.978;2023-07-20T07:22:28;10.50;;;8.32;;
68168;SDS011;54981;50.206;15.978;2023-07-20T07:24:59;9.95;;;8.48;;
68168;SDS011;54981;50.206;15.978;2023-07-20T07:27:29;9.10;;;7.75;;
68168;SDS011;54981;50.206;15.978;2023-07-20T07:30:00;8.50;;;7.70;;
68168;SDS011;54981;50.206;15.978;2023-07-20T07:32:30;9.30;;;7.35;;
68168;SDS011;54981;50.206;15.978;2023-07-20T07:35:01;9.20;;;8.30;;
68168;SDS011;54981;50.206;15.978;2023-07-20T07:37:31;9.65;;;8.68;;
68168;SDS011;54981;50.206;15.978;2023-07-20T07:40:02;10.25;;;9.13;;
68168;SDS011;54981;50.206;15.978;2023-07-20T07:42:33;9.00;;;7.22;;
68168;SDS011;54981;50.206;15.978;2023-07-20T07:45:04;8.90;;;6.95;;
68168;SDS011;54981;50.206;15.978;2023-07-20T07:47:34;8.55;;;7.10;;
68168;SDS011;54981;50.206;15.978;2023-07-20T07:50:05;8.45;;;7.30;;
68168;SDS011;54981;50.206;15.978;2023-07-20T07:52:36;10.68;;;7.40;;
68168;SDS011;54981;50.206;15.978;2023-07-20T07:55:07;7.45;;;5.95;;
68168;SDS011;54981;50.206;15.978;2023-07-20T07:57:37;7.18;;;6.25;;
68168;SDS011;54981;50.206;15.978;2023-07-20T08:00:07;7.65;;;6.55;;
68168;SDS011;54981;50.206;15.978;2023-07-20T08:02:41;6.93;;;6.22;;
68168;SDS011;54981;50.206;15.978;2023-07-20T08:05:12;7.32;;;6.13;;
68168;SDS011;54981;50.206;15.978;2023-07-20T08:07:43;6.35;;;5.43;;
68168;SDS011;54981;50.206;15.978;2023-07-20T08:10:13;6.53;;;5.35;;
68168;SDS011;54981;50.206;15.978;2023-07-20T08:12:43;6.15;;;4.97;;
68168;SDS011;54981;50.206;15.978;2023-07-20T08:15:14;6.80;;;5.13;;
68168;SDS011;54981;50.206;15.978;2023-07-20T08:17:44;8.38;;;5.25;;
68168;SDS011;54981;50.206;15.978;2023-07-20T08:20:15;5.65;;;5.15;;
68168;SDS011;54981;50.206;15.978;2023-07-20T08:22:47;6.57;;;4.50;;
68168;SDS011;54981;50.206;15.978;2023-07-20T08:25:17;4.88;;;4.28;;
68168;SDS011;54981;50.206;15.978;2023-07-20T08:27:48;6.32;;;4.85;;
68168;SDS011;54981;50.206;15.978;2023-07-20T08:30:20;5.20;;;3.95;;
68168;SDS011;54981;50.206;15.978;2023-07-20T08:32:52;3.95;;;3.65;;
68168;SDS011;54981;50.206;15.978;2023-07-20T08:35:22;5.45;;;4.35;;
68168;SDS011;54981;50.206;15.978;2023-07-20T08:37:52;4.70;;;4.30;;
68168;SDS011;54981;50.206;15.978;2023-07-20T08:40:22;8.35;;;4.82;;
68168;SDS011;54981;50.206;15.978;2023-07-20T08:42:54;5.85;;;4.43;;
68168;SDS011;54981;50.206;15.978;2023-07-20T08:45:25;5.95;;;4.70;;
68168;SDS011;54981;50.206;15.978;2023-07-20T08:47:58;6.60;;;4.63;;
68168;SDS011;54981;50.206;15.978;2023-07-20T08:50:30;6.88;;;4.28;;
68168;SDS011;54981;50.206;15.978;2023-07-20T08:53:01;5.18;;;4.20;;
68168;SDS011;54981;50.206;15.978;2023-07-20T08:55:32;7.47;;;4.47;;
68168;SDS011;54981;50.206;15.978;2023-07-20T08:58:03;7.88;;;4.13;;
68168;SDS011;54981;50.206;15.978;2023-07-20T09:00:38;6.00;;;4.25;;
68168;SDS011;54981;50.206;15.978;2023-07-20T09:03:09;4.30;;;3.88;;
68168;SDS011;54981;50.206;15.978;2023-07-20T09:05:43;6.95;;;4.72;;
68168;SDS011;54981;50.206;15.978;2023-07-20T09:08:14;4.18;;;3.65;;
68168;SDS011;54981;50.206;15.978;2023-07-20T09:10:45;4.80;;;3.72;;
68168;SDS011;54981;50.206;15.978;2023-07-20T09:13:15;4.95;;;3.22;;
68168;SDS011;54981;50.206;15.978;2023-07-20T09:15:46;3.92;;;3.55;;
68168;SDS011;54981;50.206;15.978;2023-07-20T09:18:24;5.95;;;3.70;;
68168;SDS011;54981;50.206;15.978;2023-07-20T09:20:58;5.03;;;3.35;;
68168;SDS011;54981;50.206;15.978;2023-07-20T09:26:12;4.43;;;3.50;;
68168;SDS011;54981;50.206;15.978;2023-07-20T09:31:22;3.85;;;3.38;;
68168;SDS011;54981;50.206;15.978;2023-07-20T09:33:53;4.88;;;4.18;;
68168;SDS011;54981;50.206;15.978;2023-07-20T09:36:25;4.88;;;3.90;;
68168;SDS011;54981;50.206;15.978;2023-07-20T09:38:58;5.30;;;3.92;;
68168;SDS011;54981;50.206;15.978;2023-07-20T09:41:29;8.32;;;3.53;;
68168;SDS011;54981;50.206;15.978;2023-07-20T09:44:00;4.07;;;3.40;;
68168;SDS011;54981;50.206;15.978;2023-07-20T09:46:44;4.90;;;3.55;;
68168;SDS011;54981;50.206;15.978;2023-07-20T09:49:16;4.50;;;3.25;;
68168;SDS011;54981;50.206;15.978;2023-07-20T09:51:47;4.00;;;3.08;;
68168;SDS011;54981;50.206;15.978;2023-07-20T09:54:19;3.53;;;3.05;;
68168;SDS011;54981;50.206;15.978;2023-07-20T09:56:52;3.93;;;3.33;;
68168;SDS011;54981;50.206;15.978;2023-07-20T09:59:23;4.88;;;3.08;;
68168;SDS011;54981;50.206;15.978;2023-07-20T10:01:54;4.18;;;2.97;;
68168;SDS011;54981;50.206;15.978;2023-07-20T10:04:29;5.10;;;3.17;;
68168;SDS011;54981;50.206;15.978;2023-07-20T10:07:00;3.75;;;3.17;;
68168;SDS011;54981;50.206;15.978;2023-07-20T10:09:35;4.13;;;3.28;;
68168;SDS011;54981;50.206;15.978;2023-07-20T10:12:09;6.60;;;3.25;;
68168;SDS011;54981;50.206;15.978;2023-07-20T10:14:41;3.53;;;2.70;;
68168;SDS011;54981;50.206;15.978;2023-07-20T10:17:14;3.60;;;2.88;;
68168;SDS011;54981;50.206;15.978;2023-07-20T10:19:48;4.43;;;3.15;;
68168;SDS011;54981;50.206;15.978;2023-07-20T10:22:25;3.75;;;3.40;;
68168;SDS011;54981;50.206;15.978;2023-07-20T10:24:56;3.53;;;2.55;;
68168;SDS011;54981;50.206;15.978;2023-07-20T10:27:28;3.35;;;2.60;;
68168;SDS011;54981;50.206;15.978;2023-07-20T10:29:59;3.90;;;2.63;;
68168;SDS011;54981;50.206;15.978;2023-07-20T10:32:31;3.50;;;2.95;;
68168;SDS011;54981;50.206;15.978;2023-07-20T10:35:11;4.30;;;3.00;;
68168;SDS011;54981;50.206;15.978;2023-07-20T10:37:53;3.90;;;2.75;;
68168;SDS011;54981;50.206;15.978;2023-07-20T10:40:25;4.10;;;3.10;;
68168;SDS011;54981;50.206;15.978;2023-07-20T10:47:18;13.27;;;3.10;;
68168;SDS011;54981;50.206;15.978;2023-07-20T10:49:58;5.80;;;2.97;;
68168;SDS011;54981;50.206;15.978;2023-07-20T10:52:36;7.50;;;3.00;;
68168;SDS011;54981;50.206;15.978;2023-07-20T10:55:11;9.98;;;3.17;;
68168;SDS011;54981;50.206;15.978;2023-07-20T10:57:51;7.93;;;3.13;;
68168;SDS011;54981;50.206;15.978;2023-07-20T11:00:57;4.63;;;3.38;;
68168;SDS011;54981;50.206;15.978;2023-07-20T11:03:32;5.22;;;2.80;;
68168;SDS011;54981;50.206;15.978;2023-07-20T11:08:55;4.53;;;3.03;;
68168;SDS011;54981;50.206;15.978;2023-07-20T11:11:33;2.85;;;2.58;;
68168;SDS011;54981;50.206;15.978;2023-07-20T11:14:06;3.13;;;2.55;;
68168;SDS011;54981;50.206;15.978;2023-07-20T11:16:42;3.30;;;2.50;;
68168;SDS011;54981;50.206;15.978;2023-07-20T11:19:15;5.35;;;2.50;;
68168;SDS011;54981;50.206;15.978;2023-07-20T11:21:49;3.92;;;2.72;;
68168;SDS011;54981;50.206;15.978;2023-07-20T11:24:24;3.92;;;3.03;;
68168;SDS011;54981;50.206;15.978;2023-07-20T11:26:54;4.13;;;2.78;;
68168;SDS011;54981;50.206;15.978;2023-07-20T11:29:25;4.30;;;2.70;;
68168;SDS011;54981;50.206;15.978;2023-07-20T11:31:56;8.00;;;2.60;;
68168;SDS011;54981;50.206;15.978;2023-07-20T11:34:29;4.47;;;2.72;;
68168;SDS011;54981;50.206;15.978;2023-07-20T11:37:00;3.28;;;2.83;;
68168;SDS011;54981;50.206;15.978;2023-07-20T11:39:31;3.08;;;2.88;;
68168;SDS011;54981;50.206;15.978;2023-07-20T11:42:01;8.38;;;3.13;;
68168;SDS011;54981;50.206;15.978;2023-07-20T11:44:32;3.92;;;2.90;;
68168;SDS011;54981;50.206;15.978;2023-07-20T11:47:03;3.33;;;2.90;;
68168;SDS011;54981;50.206;15.978;2023-07-20T11:49:39;3.72;;;2.45;;
68168;SDS011;54981;50.206;15.978;2023-07-20T11:52:11;4.07;;;2.88;;
68168;SDS011;54981;50.206;15.978;2023-07-20T11:54:45;3.38;;;3.08;;
68168;SDS011;54981;50.206;15.978;2023-07-20T11:57:18;2.58;;;2.38;;
68168;SDS011;54981;50.206;15.978;2023-07-20T12:00:02;2.70;;;2.50;;
68168;SDS011;54981;50.206;15.978;2023-07-20T12:02:41;4.20;;;2.30;;
68168;SDS011;54981;50.206;15.978;2023-07-20T12:05:11;3.65;;;2.70;;
68168;SDS011;54981;50.206;15.978;2023-07-20T12:07:43;3.53;;;3.22;;
68168;SDS011;54981;50.206;15.978;2023-07-20T12:10:13;4.50;;;2.58;;
68168;SDS011;54981;50.206;15.978;2023-07-20T12:12:44;3.75;;;3.45;;
68168;SDS011;54981;50.206;15.978;2023-07-20T12:15:16;3.33;;;2.83;;
68168;SDS011;54981;50.206;15.978;2023-07-20T12:17:50;3.55;;;2.65;;
68168;SDS011;54981;50.206;15.978;2023-07-20T12:23:02;3.45;;;2.60;;
68168;SDS011;54981;50.206;15.978;2023-07-20T12:25:44;3.40;;;2.53;;
68168;SDS011;54981;50.206;15.978;2023-07-20T12:28:17;2.45;;;2.30;;
68168;SDS011;54981;50.206;15.978;2023-07-20T12:30:49;3.38;;;2.47;;
68168;SDS011;54981;50.206;15.978;2023-07-20T12:33:26;3.85;;;2.10;;
68168;SDS011;54981;50.206;15.978;2023-07-20T12:35:56;2.47;;;2.28;;
68168;SDS011;54981;50.206;15.978;2023-07-20T12:38:28;2.72;;;2.53;;
68168;SDS011;54981;50.206;15.978;2023-07-20T12:41:01;4.03;;;2.38;;
68168;SDS011;54981;50.206;15.978;2023-07-20T12:43:32;2.53;;;2.33;;
68168;SDS011;54981;50.206;15.978;2023-07-20T12:46:03;2.67;;;2.22;;
68168;SDS011;54981;50.206;15.978;2023-07-20T12:51:09;2.58;;;2.38;;
68168;SDS011;54981;50.206;15.978;2023-07-20T12:53:40;2.78;;;2.47;;
68168;SDS011;54981;50.206;15.978;2023-07-20T12:56:10;3.08;;;2.60;;
68168;SDS011;54981;50.206;15.978;2023-07-20T12:58:41;3.33;;;2.47;;
68168;SDS011;54981;50.206;15.978;2023-07-20T13:01:11;3.65;;;2.40;;
68168;SDS011;54981;50.206;15.978;2023-07-20T13:03:42;2.50;;;2.30;;
68168;SDS011;54981;50.206;15.978;2023-07-20T13:06:12;3.55;;;2.35;;
68168;SDS011;54981;50.206;15.978;2023-07-20T13:08:42;2.60;;;2.40;;
68168;SDS011;54981;50.206;15.978;2023-07-20T13:11:13;2.88;;;2.20;;
68168;SDS011;54981;50.206;15.978;2023-07-20T13:13:43;3.47;;;2.60;;
68168;SDS011;54981;50.206;15.978;2023-07-20T13:16:14;2.83;;;2.53;;
68168;SDS011;54981;50.206;15.978;2023-07-20T13:18:45;3.00;;;2.72;;
68168;SDS011;54981;50.206;15.978;2023-07-20T13:21:15;2.40;;;2.20;;
68168;SDS011;54981;50.206;15.978;2023-07-20T13:23:46;3.28;;;2.53;;
68168;SDS011;54981;50.206;15.978;2023-07-20T13:26:17;3.05;;;2.35;;
68168;SDS011;54981;50.206;15.978;2023-07-20T13:28:47;3.88;;;2.63;;
68168;SDS011;54981;50.206;15.978;2023-07-20T13:31:18;2.85;;;2.53;;
68168;SDS011;54981;50.206;15.978;2023-07-20T13:33:48;3.58;;;2.80;;
68168;SDS011;54981;50.206;15.978;2023-07-20T13:36:18;4.10;;;2.75;;
68168;SDS011;54981;50.206;15.978;2023-07-20T13:38:52;3.08;;;2.40;;
68168;SDS011;54981;50.206;15.978;2023-07-20T13:41:23;2.50;;;2.30;;
68168;SDS011;54981;50.206;15.978;2023-07-20T13:43:53;2.97;;;2.72;;
68168;SDS011;54981;50.206;15.978;2023-07-20T13:46:24;3.42;;;2.55;;
68168;SDS011;54981;50.206;15.978;2023-07-20T13:48:54;3.05;;;2.45;;
68168;SDS011;54981;50.206;15.978;2023-07-20T13:51:24;3.50;;;2.47;;
68168;SDS011;54981;50.206;15.978;2023-07-20T13:53:55;3.78;;;2.80;;
68168;SDS011;54981;50.206;15.978;2023-07-20T13:56:27;3.03;;;2.70;;
68168;SDS011;54981;50.206;15.978;2023-07-20T13:58:57;4.05;;;2.50;;
68168;SDS011;54981;50.206;15.978;2023-07-20T14:01:27;4.30;;;2.38;;
68168;SDS011;54981;50.206;15.978;2023-07-20T14:03:59;2.60;;;2.38;;
68168;SDS011;54981;50.206;15.978;2023-07-20T14:06:29;2.67;;;2.28;;
68168;SDS011;54981;50.206;15.978;2023-07-20T14:09:01;3.55;;;2.85;;
68168;SDS011;54981;50.206;15.978;2023-07-20T14:11:32;3.00;;;2.45;;
68168;SDS011;54981;50.206;15.978;2023-07-20T14:14:02;2.47;;;2.28;;
68168;SDS011;54981;50.206;15.978;2023-07-20T14:16:35;2.45;;;1.88;;
68168;SDS011;54981;50.206;15.978;2023-07-20T14:19:06;3.38;;;2.58;;
68168;SDS011;54981;50.206;15.978;2023-07-20T14:21:37;4.07;;;2.65;;
68168;SDS011;54981;50.206;15.978;2023-07-20T14:24:07;5.00;;;2.75;;
68168;SDS011;54981;50.206;15.978;2023-07-20T14:26:37;3.05;;;2.75;;
68168;SDS011;54981;50.206;15.978;2023-07-20T14:29:08;3.17;;;2.20;;
68168;SDS011;54981;50.206;15.978;2023-07-20T14:31:38;3.70;;;2.65;;
68168;SDS011;54981;50.206;15.978;2023-07-20T14:34:09;3.65;;;2.40;;
68168;SDS011;54981;50.206;15.978;2023-07-20T14:36:39;2.53;;;2.30;;
68168;SDS011;54981;50.206;15.978;2023-07-20T14:39:10;3.17;;;2.63;;
68168;SDS011;54981;50.206;15.978;2023-07-20T14:41:40;3.53;;;2.97;;
68168;SDS011;54981;50.206;15.978;2023-07-20T14:44:11;4.65;;;2.58;;
68168;SDS011;54981;50.206;15.978;2023-07-20T14:46:41;4.15;;;2.70;;
68168;SDS011;54981;50.206;15.978;2023-07-20T14:49:12;3.47;;;2.80;;
68168;SDS011;54981;50.206;15.978;2023-07-20T14:51:42;3.80;;;2.92;;
68168;SDS011;54981;50.206;15.978;2023-07-20T14:54:16;4.15;;;2.55;;
68168;SDS011;54981;50.206;15.978;2023-07-20T14:56:50;3.65;;;2.42;;
68168;SDS011;54981;50.206;15.978;2023-07-20T14:59:23;3.65;;;3.03;;
68168;SDS011;54981;50.206;15.978;2023-07-20T15:01:53;6.22;;;3.03;;
68168;SDS011;54981;50.206;15.978;2023-07-20T15:04:24;4.60;;;2.90;;
68168;SDS011;54981;50.206;15.978;2023-07-20T15:06:54;3.20;;;2.90;;
68168;SDS011;54981;50.206;15.978;2023-07-20T15:09:24;4.70;;;2.75;;
68168;SDS011;54981;50.206;15.978;2023-07-20T15:11:55;2.95;;;2.55;;
68168;SDS011;54981;50.206;15.978;2023-07-20T15:16:49;3.63;;;2.10;;
68168;SDS011;54981;50.206;15.978;2023-07-20T15:19:19;3.47;;;2.58;;
68168;SDS011;54981;50.206;15.978;2023-07-20T15:21:52;3.63;;;2.50;;
68168;SDS011;54981;50.206;15.978;2023-07-20T15:24:22;2.30;;;2.10;;
68168;SDS011;54981;50.206;15.978;2023-07-20T15:26:52;2.00;;;1.88;;
68168;SDS011;54981;50.206;15.978;2023-07-20T15:29:23;4.15;;;2.25;;